sensor_id;sensor_type;location;lat;lon;timestamp;P1;durP1;ratioP1;P2;durP2;ratioP2
13303;SDS011;6720;51.958;4.540;2022-11-25T00:00:08;16.17;;;5.83;;
13303;SDS011;6720;51.958;4.540;2022-11-25T00:02:34;17.10;;;5.93;;
13303;SDS011;6720;51.958;4.540;2022-11-25T00:04:59;22.37;;;6.47;;
13303;SDS011;6720;51.958;4.540;2022-11-25T00:07:25;18.70;;;5.33;;
13303;SDS011;6720;51.958;4.540;2022-11-25T00:09:50;19.57;;;6.60;;
13303;SDS011;6720;51.958;4.540;2022-11-25T00:12:15;14.10;;;5.57;;
13303;SDS011;6720;51.958;4.540;2022-11-25T00:14:41;17.40;;;5.93;;
13303;SDS011;6720;51.958;4.540;2022-11-25T00:17:06;12.57;;;4.90;;
13303;SDS011;6720;51.958;4.540;2022-11-25T00:19:32;17.83;;;5.77;;
13303;SDS011;6720;51.958;4.540;2022-11-25T00:21:57;17.17;;;4.97;;
13303;SDS011;6720;51.958;4.540;2022-11-25T00:24:22;12.83;;;5.63;;
13303;SDS011;6720;51.958;4.540;2022-11-25T00:26:48;15.90;;;5.67;;
13303;SDS011;6720;51.958;4.540;2022-11-25T00:29:13;13.23;;;5.83;;
13303;SDS011;6720;51.958;4.540;2022-11-25T00:31:39;16.63;;;6.80;;
13303;SDS011;6720;51.958;4.540;2022-11-25T00:34:05;15.47;;;5.67;;
13303;SDS011;6720;51.958;4.540;2022-11-25T00:36:34;14.33;;;6.03;;
13303;SDS011;6720;51.958;4.540;2022-11-25T00:39:02;15.93;;;6.30;;
13303;SDS011;6720;51.958;4.540;2022-11-25T00:41:30;22.53;;;6.40;;
13303;SDS011;6720;51.958;4.540;2022-11-25T00:44:15;14.87;;;6.37;;
13303;SDS011;6720;51.958;4.540;2022-11-25T00:47:03;19.27;;;7.30;;
13303;SDS011;6720;51.958;4.540;2022-11-25T00:49:33;13.90;;;6.53;;
13303;SDS011;6720;51.958;4.540;2022-11-25T00:52:00;16.37;;;6.53;;
13303;SDS011;6720;51.958;4.540;2022-11-25T00:54:25;19.57;;;7.23;;
13303;SDS011;6720;51.958;4.540;2022-11-25T00:56:51;15.87;;;6.23;;
13303;SDS011;6720;51.958;4.540;2022-11-25T00:59:16;17.60;;;7.00;;
13303;SDS011;6720;51.958;4.540;2022-11-25T01:01:42;16.97;;;6.50;;
13303;SDS011;6720;51.958;4.540;2022-11-25T01:04:08;14.47;;;5.97;;
13303;SDS011;6720;51.958;4.540;2022-11-25T01:06:34;13.63;;;6.53;;
13303;SDS011;6720;51.958;4.540;2022-11-25T01:09:00;18.03;;;6.60;;
13303;SDS011;6720;51.958;4.540;2022-11-25T01:11:26;14.13;;;6.10;;
13303;SDS011;6720;51.958;4.540;2022-11-25T01:13:51;19.07;;;6.93;;
13303;SDS011;6720;51.958;4.540;2022-11-25T01:16:19;17.97;;;6.43;;
13303;SDS011;6720;51.958;4.540;2022-11-25T01:18:45;18.20;;;6.47;;
13303;SDS011;6720;51.958;4.540;2022-11-25T01:21:11;20.03;;;6.07;;
13303;SDS011;6720;51.958;4.540;2022-11-25T01:23:43;16.57;;;6.93;;
13303;SDS011;6720;51.958;4.540;2022-11-25T01:26:12;20.80;;;7.57;;
13303;SDS011;6720;51.958;4.540;2022-11-25T01:28:39;17.13;;;6.63;;
13303;SDS011;6720;51.958;4.540;2022-11-25T01:31:06;17.60;;;6.37;;
13303;SDS011;6720;51.958;4.540;2022-11-25T01:33:33;13.60;;;5.77;;
13303;SDS011;6720;51.958;4.540;2022-11-25T01:36:06;14.87;;;5.57;;
13303;SDS011;6720;51.958;4.540;2022-11-25T01:38:33;16.80;;;5.73;;
13303;SDS011;6720;51.958;4.540;2022-11-25T01:40:59;15.33;;;5.80;;
13303;SDS011;6720;51.958;4.540;2022-11-25T01:43:25;18.47;;;5.30;;
13303;SDS011;6720;51.958;4.540;2022-11-25T01:46:38;16.17;;;5.53;;
13303;SDS011;6720;51.958;4.540;2022-11-25T01:48:56;14.13;;;5.17;;
13303;SDS011;6720;51.958;4.540;2022-11-25T01:54:01;12.77;;;5.20;;
13303;SDS011;6720;51.958;4.540;2022-11-25T01:56:30;16.00;;;4.90;;
13303;SDS011;6720;51.958;4.540;2022-11-25T01:58:58;17.07;;;4.60;;
13303;SDS011;6720;51.958;4.540;2022-11-25T02:01:24;10.90;;;4.37;;
13303;SDS011;6720;51.958;4.540;2022-11-25T02:03:50;13.83;;;4.90;;
13303;SDS011;6720;51.958;4.540;2022-11-25T02:06:27;16.17;;;4.10;;
13303;SDS011;6720;51.958;4.540;2022-11-25T02:08:57;12.97;;;4.47;;
13303;SDS011;6720;51.958;4.540;2022-11-25T02:11:28;14.47;;;4.47;;
13303;SDS011;6720;51.958;4.540;2022-11-25T02:13:54;11.20;;;4.20;;
13303;SDS011;6720;51.958;4.540;2022-11-25T02:16:20;13.73;;;4.10;;
13303;SDS011;6720;51.958;4.540;2022-11-25T02:18:46;9.33;;;4.23;;
13303;SDS011;6720;51.958;4.540;2022-11-25T02:21:12;12.67;;;4.47;;
13303;SDS011;6720;51.958;4.540;2022-11-25T02:23:42;9.43;;;4.23;;
13303;SDS011;6720;51.958;4.540;2022-11-25T02:26:16;10.10;;;3.60;;
13303;SDS011;6720;51.958;4.540;2022-11-25T02:28:42;8.43;;;3.83;;
13303;SDS011;6720;51.958;4.540;2022-11-25T02:31:07;7.73;;;4.40;;
13303;SDS011;6720;51.958;4.540;2022-11-25T02:33:33;13.30;;;3.60;;
13303;SDS011;6720;51.958;4.540;2022-11-25T02:36:09;10.80;;;4.07;;
13303;SDS011;6720;51.958;4.540;2022-11-25T02:38:55;11.40;;;3.83;;
13303;SDS011;6720;51.958;4.540;2022-11-25T02:43:56;9.47;;;3.30;;
13303;SDS011;6720;51.958;4.540;2022-11-25T02:46:22;8.60;;;3.50;;
13303;SDS011;6720;51.958;4.540;2022-11-25T02:48:50;10.73;;;3.30;;
13303;SDS011;6720;51.958;4.540;2022-11-25T02:51:17;9.73;;;3.57;;
13303;SDS011;6720;51.958;4.540;2022-11-25T02:53:44;6.97;;;3.63;;
13303;SDS011;6720;51.958;4.540;2022-11-25T02:56:13;6.43;;;3.17;;
13303;SDS011;6720;51.958;4.540;2022-11-25T02:58:40;6.33;;;2.93;;
13303;SDS011;6720;51.958;4.540;2022-11-25T03:01:06;9.90;;;3.43;;
13303;SDS011;6720;51.958;4.540;2022-11-25T03:03:33;7.90;;;3.27;;
13303;SDS011;6720;51.958;4.540;2022-11-25T03:05:58;7.13;;;3.20;;
13303;SDS011;6720;51.958;4.540;2022-11-25T03:08:24;10.37;;;3.40;;
13303;SDS011;6720;51.958;4.540;2022-11-25T03:10:49;7.77;;;2.73;;
13303;SDS011;6720;51.958;4.540;2022-11-25T03:13:14;8.10;;;3.00;;
13303;SDS011;6720;51.958;4.540;2022-11-25T03:15:40;7.40;;;2.70;;
13303;SDS011;6720;51.958;4.540;2022-11-25T03:18:06;6.80;;;2.70;;
13303;SDS011;6720;51.958;4.540;2022-11-25T03:20:31;7.00;;;2.70;;
13303;SDS011;6720;51.958;4.540;2022-11-25T03:22:57;7.90;;;3.33;;
13303;SDS011;6720;51.958;4.540;2022-11-25T03:25:23;6.67;;;2.80;;
13303;SDS011;6720;51.958;4.540;2022-11-25T03:27:49;7.80;;;3.17;;
13303;SDS011;6720;51.958;4.540;2022-11-25T03:30:16;7.37;;;3.47;;
13303;SDS011;6720;51.958;4.540;2022-11-25T03:32:43;6.37;;;3.07;;
13303;SDS011;6720;51.958;4.540;2022-11-25T03:35:09;9.17;;;3.07;;
13303;SDS011;6720;51.958;4.540;2022-11-25T03:37:35;7.90;;;3.10;;
13303;SDS011;6720;51.958;4.540;2022-11-25T03:40:01;6.13;;;2.80;;
13303;SDS011;6720;51.958;4.540;2022-11-25T03:42:27;5.00;;;2.63;;
13303;SDS011;6720;51.958;4.540;2022-11-25T03:44:52;9.80;;;3.00;;
13303;SDS011;6720;51.958;4.540;2022-11-25T03:47:18;6.93;;;2.90;;
13303;SDS011;6720;51.958;4.540;2022-11-25T03:49:44;6.17;;;2.67;;
13303;SDS011;6720;51.958;4.540;2022-11-25T03:52:09;7.37;;;2.87;;
13303;SDS011;6720;51.958;4.540;2022-11-25T03:54:34;8.90;;;2.93;;
13303;SDS011;6720;51.958;4.540;2022-11-25T03:57:00;5.93;;;2.30;;
13303;SDS011;6720;51.958;4.540;2022-11-25T03:59:25;6.27;;;2.90;;
13303;SDS011;6720;51.958;4.540;2022-11-25T04:01:50;4.00;;;2.30;;
13303;SDS011;6720;51.958;4.540;2022-11-25T04:04:16;6.13;;;2.17;;
13303;SDS011;6720;51.958;4.540;2022-11-25T04:06:41;4.10;;;2.20;;
13303;SDS011;6720;51.958;4.540;2022-11-25T04:09:07;3.23;;;2.00;;
13303;SDS011;6720;51.958;4.540;2022-11-25T04:11:33;2.33;;;1.80;;
13303;SDS011;6720;51.958;4.540;2022-11-25T04:14:18;4.37;;;2.33;;
13303;SDS011;6720;51.958;4.540;2022-11-25T04:16:43;4.87;;;2.20;;
13303;SDS011;6720;51.958;4.540;2022-11-25T04:19:09;3.67;;;2.00;;
13303;SDS011;6720;51.958;4.540;2022-11-25T04:21:34;4.93;;;1.97;;
13303;SDS011;6720;51.958;4.540;2022-11-25T04:24:07;2.97;;;1.97;;
13303;SDS011;6720;51.958;4.540;2022-11-25T04:26:33;3.40;;;1.73;;
13303;SDS011;6720;51.958;4.540;2022-11-25T04:28:58;3.70;;;1.90;;
13303;SDS011;6720;51.958;4.540;2022-11-25T04:31:24;4.87;;;1.87;;
13303;SDS011;6720;51.958;4.540;2022-11-25T04:33:49;3.87;;;1.97;;
13303;SDS011;6720;51.958;4.540;2022-11-25T04:36:15;4.57;;;1.70;;
13303;SDS011;6720;51.958;4.540;2022-11-25T04:38:41;3.50;;;2.07;;
13303;SDS011;6720;51.958;4.540;2022-11-25T04:41:06;4.97;;;2.07;;
13303;SDS011;6720;51.958;4.540;2022-11-25T04:43:31;4.43;;;2.03;;
13303;SDS011;6720;51.958;4.540;2022-11-25T04:45:57;5.07;;;2.93;;
13303;SDS011;6720;51.958;4.540;2022-11-25T04:48:23;5.90;;;2.43;;
13303;SDS011;6720;51.958;4.540;2022-11-25T04:50:48;4.10;;;2.33;;
13303;SDS011;6720;51.958;4.540;2022-11-25T04:53:15;4.27;;;2.33;;
13303;SDS011;6720;51.958;4.540;2022-11-25T04:55:40;4.67;;;2.17;;
13303;SDS011;6720;51.958;4.540;2022-11-25T04:58:06;6.03;;;2.07;;
13303;SDS011;6720;51.958;4.540;2022-11-25T05:00:31;3.63;;;2.20;;
13303;SDS011;6720;51.958;4.540;2022-11-25T05:02:57;5.40;;;2.30;;
13303;SDS011;6720;51.958;4.540;2022-11-25T05:05:22;5.63;;;2.40;;
13303;SDS011;6720;51.958;4.540;2022-11-25T05:07:48;4.50;;;2.43;;
13303;SDS011;6720;51.958;4.540;2022-11-25T05:10:13;3.50;;;2.27;;
13303;SDS011;6720;51.958;4.540;2022-11-25T05:12:39;6.00;;;2.80;;
13303;SDS011;6720;51.958;4.540;2022-11-25T05:15:05;6.10;;;2.57;;
13303;SDS011;6720;51.958;4.540;2022-11-25T05:17:31;4.77;;;2.50;;
13303;SDS011;6720;51.958;4.540;2022-11-25T05:19:57;5.83;;;2.57;;
13303;SDS011;6720;51.958;4.540;2022-11-25T05:22:27;6.80;;;2.60;;
13303;SDS011;6720;51.958;4.540;2022-11-25T05:24:54;7.40;;;3.73;;
13303;SDS011;6720;51.958;4.540;2022-11-25T05:27:20;5.50;;;2.97;;
13303;SDS011;6720;51.958;4.540;2022-11-25T05:29:46;6.90;;;3.10;;
13303;SDS011;6720;51.958;4.540;2022-11-25T05:32:12;6.50;;;3.03;;
13303;SDS011;6720;51.958;4.540;2022-11-25T05:34:38;7.80;;;3.33;;
13303;SDS011;6720;51.958;4.540;2022-11-25T05:37:04;8.43;;;3.97;;
13303;SDS011;6720;51.958;4.540;2022-11-25T05:39:30;6.17;;;3.10;;
13303;SDS011;6720;51.958;4.540;2022-11-25T05:41:55;5.07;;;3.10;;
13303;SDS011;6720;51.958;4.540;2022-11-25T05:44:21;4.93;;;2.93;;
13303;SDS011;6720;51.958;4.540;2022-11-25T05:46:46;8.30;;;3.00;;
13303;SDS011;6720;51.958;4.540;2022-11-25T05:49:13;6.70;;;3.50;;
13303;SDS011;6720;51.958;4.540;2022-11-25T05:51:39;7.10;;;3.20;;
13303;SDS011;6720;51.958;4.540;2022-11-25T05:54:05;7.17;;;3.67;;
13303;SDS011;6720;51.958;4.540;2022-11-25T05:56:30;10.73;;;3.50;;
13303;SDS011;6720;51.958;4.540;2022-11-25T05:58:57;9.67;;;3.23;;
13303;SDS011;6720;51.958;4.540;2022-11-25T06:01:23;8.80;;;3.17;;
13303;SDS011;6720;51.958;4.540;2022-11-25T06:03:49;8.03;;;3.47;;
13303;SDS011;6720;51.958;4.540;2022-11-25T06:06:14;8.63;;;3.27;;
13303;SDS011;6720;51.958;4.540;2022-11-25T06:08:40;7.80;;;3.17;;
13303;SDS011;6720;51.958;4.540;2022-11-25T06:11:06;5.23;;;3.00;;
13303;SDS011;6720;51.958;4.540;2022-11-25T06:13:36;9.60;;;3.53;;
13303;SDS011;6720;51.958;4.540;2022-11-25T06:16:06;6.43;;;3.77;;
13303;SDS011;6720;51.958;4.540;2022-11-25T06:18:36;8.43;;;3.40;;
13303;SDS011;6720;51.958;4.540;2022-11-25T06:21:02;8.50;;;3.93;;
13303;SDS011;6720;51.958;4.540;2022-11-25T06:23:28;5.67;;;3.17;;
13303;SDS011;6720;51.958;4.540;2022-11-25T06:25:54;5.10;;;3.20;;
13303;SDS011;6720;51.958;4.540;2022-11-25T06:28:19;9.93;;;3.43;;
13303;SDS011;6720;51.958;4.540;2022-11-25T06:30:45;7.80;;;3.60;;
13303;SDS011;6720;51.958;4.540;2022-11-25T06:33:10;8.90;;;3.70;;
13303;SDS011;6720;51.958;4.540;2022-11-25T06:35:35;8.07;;;4.03;;
13303;SDS011;6720;51.958;4.540;2022-11-25T06:38:01;6.87;;;3.23;;
13303;SDS011;6720;51.958;4.540;2022-11-25T06:40:26;9.17;;;3.87;;
13303;SDS011;6720;51.958;4.540;2022-11-25T06:42:52;8.23;;;4.63;;
13303;SDS011;6720;51.958;4.540;2022-11-25T06:45:17;8.50;;;3.63;;
13303;SDS011;6720;51.958;4.540;2022-11-25T06:47:42;10.80;;;4.03;;
13303;SDS011;6720;51.958;4.540;2022-11-25T06:50:08;9.47;;;3.93;;
13303;SDS011;6720;51.958;4.540;2022-11-25T06:52:34;10.37;;;5.33;;
13303;SDS011;6720;51.958;4.540;2022-11-25T06:54:59;10.83;;;4.80;;
13303;SDS011;6720;51.958;4.540;2022-11-25T06:57:25;14.33;;;4.67;;
13303;SDS011;6720;51.958;4.540;2022-11-25T06:59:50;12.30;;;4.50;;
13303;SDS011;6720;51.958;4.540;2022-11-25T07:02:16;9.17;;;4.20;;
13303;SDS011;6720;51.958;4.540;2022-11-25T07:04:41;11.07;;;4.23;;
13303;SDS011;6720;51.958;4.540;2022-11-25T07:07:07;10.17;;;4.37;;
13303;SDS011;6720;51.958;4.540;2022-11-25T07:09:33;10.90;;;4.37;;
13303;SDS011;6720;51.958;4.540;2022-11-25T07:11:59;6.10;;;3.90;;
13303;SDS011;6720;51.958;4.540;2022-11-25T07:14:24;8.40;;;4.10;;
13303;SDS011;6720;51.958;4.540;2022-11-25T07:16:49;6.73;;;4.83;;
13303;SDS011;6720;51.958;4.540;2022-11-25T07:19:15;7.63;;;3.67;;
13303;SDS011;6720;51.958;4.540;2022-11-25T07:21:42;10.07;;;3.97;;
13303;SDS011;6720;51.958;4.540;2022-11-25T07:24:10;8.37;;;3.50;;
13303;SDS011;6720;51.958;4.540;2022-11-25T07:26:37;9.10;;;3.77;;
13303;SDS011;6720;51.958;4.540;2022-11-25T07:29:04;15.27;;;4.57;;
13303;SDS011;6720;51.958;4.540;2022-11-25T07:31:33;9.40;;;4.00;;
13303;SDS011;6720;51.958;4.540;2022-11-25T07:34:01;11.80;;;4.70;;
13303;SDS011;6720;51.958;4.540;2022-11-25T07:36:29;6.10;;;3.83;;
13303;SDS011;6720;51.958;4.540;2022-11-25T07:38:56;7.60;;;3.60;;
13303;SDS011;6720;51.958;4.540;2022-11-25T07:41:24;8.77;;;3.80;;
13303;SDS011;6720;51.958;4.540;2022-11-25T07:43:51;7.97;;;3.83;;
13303;SDS011;6720;51.958;4.540;2022-11-25T07:46:19;6.73;;;3.63;;
13303;SDS011;6720;51.958;4.540;2022-11-25T07:48:49;7.67;;;3.67;;
13303;SDS011;6720;51.958;4.540;2022-11-25T07:51:26;7.13;;;3.67;;
13303;SDS011;6720;51.958;4.540;2022-11-25T07:53:53;7.27;;;3.70;;
13303;SDS011;6720;51.958;4.540;2022-11-25T07:56:20;8.67;;;3.57;;
13303;SDS011;6720;51.958;4.540;2022-11-25T07:58:46;5.87;;;3.50;;
13303;SDS011;6720;51.958;4.540;2022-11-25T08:01:11;7.00;;;3.93;;
13303;SDS011;6720;51.958;4.540;2022-11-25T08:03:38;8.07;;;3.47;;
13303;SDS011;6720;51.958;4.540;2022-11-25T08:06:05;7.53;;;2.97;;
13303;SDS011;6720;51.958;4.540;2022-11-25T08:08:34;6.53;;;2.90;;
13303;SDS011;6720;51.958;4.540;2022-11-25T08:11:00;6.90;;;3.17;;
13303;SDS011;6720;51.958;4.540;2022-11-25T08:13:30;6.60;;;2.90;;
13303;SDS011;6720;51.958;4.540;2022-11-25T08:15:57;8.53;;;3.17;;
13303;SDS011;6720;51.958;4.540;2022-11-25T08:18:24;7.87;;;3.10;;
13303;SDS011;6720;51.958;4.540;2022-11-25T08:20:49;6.73;;;3.17;;
13303;SDS011;6720;51.958;4.540;2022-11-25T08:23:14;9.53;;;3.00;;
13303;SDS011;6720;51.958;4.540;2022-11-25T08:25:40;9.73;;;4.00;;
13303;SDS011;6720;51.958;4.540;2022-11-25T08:28:06;9.03;;;3.20;;
13303;SDS011;6720;51.958;4.540;2022-11-25T08:30:32;6.07;;;3.37;;
13303;SDS011;6720;51.958;4.540;2022-11-25T08:32:57;5.90;;;3.00;;
13303;SDS011;6720;51.958;4.540;2022-11-25T08:35:24;5.90;;;2.80;;
13303;SDS011;6720;51.958;4.540;2022-11-25T08:37:49;8.73;;;2.93;;
13303;SDS011;6720;51.958;4.540;2022-11-25T08:40:14;6.60;;;2.67;;
13303;SDS011;6720;51.958;4.540;2022-11-25T08:42:40;7.63;;;3.90;;
13303;SDS011;6720;51.958;4.540;2022-11-25T08:45:06;6.90;;;2.97;;
13303;SDS011;6720;51.958;4.540;2022-11-25T08:47:32;8.43;;;3.37;;
13303;SDS011;6720;51.958;4.540;2022-11-25T08:49:58;7.87;;;2.90;;
13303;SDS011;6720;51.958;4.540;2022-11-25T08:52:23;6.27;;;2.90;;
13303;SDS011;6720;51.958;4.540;2022-11-25T08:54:49;8.03;;;3.30;;
13303;SDS011;6720;51.958;4.540;2022-11-25T08:57:14;7.53;;;2.63;;
13303;SDS011;6720;51.958;4.540;2022-11-25T08:59:40;4.87;;;3.00;;
13303;SDS011;6720;51.958;4.540;2022-11-25T09:02:05;7.00;;;2.57;;
13303;SDS011;6720;51.958;4.540;2022-11-25T09:04:32;10.27;;;3.00;;
13303;SDS011;6720;51.958;4.540;2022-11-25T09:06:58;7.73;;;2.80;;
13303;SDS011;6720;51.958;4.540;2022-11-25T09:09:24;6.97;;;3.00;;
13303;SDS011;6720;51.958;4.540;2022-11-25T09:11:50;6.57;;;3.27;;
13303;SDS011;6720;51.958;4.540;2022-11-25T09:14:15;6.43;;;2.80;;
13303;SDS011;6720;51.958;4.540;2022-11-25T09:16:40;6.57;;;2.87;;
13303;SDS011;6720;51.958;4.540;2022-11-25T09:19:06;6.47;;;3.07;;
13303;SDS011;6720;51.958;4.540;2022-11-25T09:21:31;7.10;;;3.10;;
13303;SDS011;6720;51.958;4.540;2022-11-25T09:23:57;6.53;;;2.77;;
13303;SDS011;6720;51.958;4.540;2022-11-25T09:26:28;4.87;;;2.60;;
13303;SDS011;6720;51.958;4.540;2022-11-25T09:28:56;8.57;;;2.97;;
13303;SDS011;6720;51.958;4.540;2022-11-25T09:31:22;7.33;;;3.20;;
13303;SDS011;6720;51.958;4.540;2022-11-25T09:33:48;7.97;;;3.23;;
13303;SDS011;6720;51.958;4.540;2022-11-25T09:36:14;7.33;;;2.70;;
13303;SDS011;6720;51.958;4.540;2022-11-25T09:38:40;6.70;;;3.40;;
13303;SDS011;6720;51.958;4.540;2022-11-25T09:41:20;6.80;;;2.90;;
13303;SDS011;6720;51.958;4.540;2022-11-25T09:45:05;7.03;;;2.73;;
13303;SDS011;6720;51.958;4.540;2022-11-25T09:50:29;7.47;;;2.70;;
13303;SDS011;6720;51.958;4.540;2022-11-25T09:55:54;6.33;;;2.63;;
13303;SDS011;6720;51.958;4.540;2022-11-25T10:00:57;7.33;;;3.00;;
13303;SDS011;6720;51.958;4.540;2022-11-25T10:03:43;4.90;;;2.80;;
13303;SDS011;6720;51.958;4.540;2022-11-25T10:06:19;7.60;;;2.80;;
13303;SDS011;6720;51.958;4.540;2022-11-25T10:09:10;8.27;;;3.43;;
13303;SDS011;6720;51.958;4.540;2022-11-25T10:14:49;6.30;;;3.20;;
13303;SDS011;6720;51.958;4.540;2022-11-25T10:20:26;8.00;;;3.17;;
13303;SDS011;6720;51.958;4.540;2022-11-25T10:22:55;8.53;;;2.67;;
13303;SDS011;6720;51.958;4.540;2022-11-25T10:25:25;11.57;;;2.93;;
13303;SDS011;6720;51.958;4.540;2022-11-25T10:27:55;10.17;;;3.53;;
13303;SDS011;6720;51.958;4.540;2022-11-25T10:30:23;9.83;;;3.43;;
13303;SDS011;6720;51.958;4.540;2022-11-25T10:32:52;11.57;;;3.93;;
13303;SDS011;6720;51.958;4.540;2022-11-25T10:35:40;7.17;;;3.10;;
13303;SDS011;6720;51.958;4.540;2022-11-25T10:38:10;12.33;;;3.50;;
13303;SDS011;6720;51.958;4.540;2022-11-25T10:40:41;7.80;;;3.10;;
13303;SDS011;6720;51.958;4.540;2022-11-25T10:43:11;9.50;;;3.40;;
13303;SDS011;6720;51.958;4.540;2022-11-25T10:45:40;9.47;;;3.13;;
13303;SDS011;6720;51.958;4.540;2022-11-25T10:48:16;8.20;;;3.17;;
13303;SDS011;6720;51.958;4.540;2022-11-25T10:50:57;9.83;;;3.30;;
13303;SDS011;6720;51.958;4.540;2022-11-25T10:53:26;6.63;;;3.40;;
13303;SDS011;6720;51.958;4.540;2022-11-25T10:58:32;9.50;;;3.50;;
13303;SDS011;6720;51.958;4.540;2022-11-25T11:03:37;9.80;;;3.60;;
13303;SDS011;6720;51.958;4.540;2022-11-25T11:06:04;9.63;;;3.87;;
13303;SDS011;6720;51.958;4.540;2022-11-25T11:08:39;9.30;;;3.77;;
13303;SDS011;6720;51.958;4.540;2022-11-25T11:13:41;10.70;;;3.33;;
13303;SDS011;6720;51.958;4.540;2022-11-25T11:18:51;10.37;;;3.60;;
13303;SDS011;6720;51.958;4.540;2022-11-25T11:21:21;12.80;;;3.70;;
13303;SDS011;6720;51.958;4.540;2022-11-25T11:23:53;13.33;;;3.60;;
13303;SDS011;6720;51.958;4.540;2022-11-25T11:28:55;11.47;;;3.23;;
13303;SDS011;6720;51.958;4.540;2022-11-25T11:31:25;13.87;;;3.87;;
13303;SDS011;6720;51.958;4.540;2022-11-25T11:45:04;12.03;;;3.57;;
13303;SDS011;6720;51.958;4.540;2022-11-25T11:50:22;11.40;;;4.00;;
13303;SDS011;6720;51.958;4.540;2022-11-25T11:52:55;10.07;;;3.23;;
13303;SDS011;6720;51.958;4.540;2022-11-25T11:58:23;13.70;;;3.77;;
13303;SDS011;6720;51.958;4.540;2022-11-25T12:03:26;11.37;;;3.73;;
13303;SDS011;6720;51.958;4.540;2022-11-25T12:05:53;9.43;;;3.47;;
13303;SDS011;6720;51.958;4.540;2022-11-25T12:08:33;13.33;;;4.00;;
13303;SDS011;6720;51.958;4.540;2022-11-25T12:11:03;9.53;;;3.17;;
13303;SDS011;6720;51.958;4.540;2022-11-25T12:13:46;11.87;;;3.87;;
13303;SDS011;6720;51.958;4.540;2022-11-25T12:16:26;10.47;;;4.00;;
13303;SDS011;6720;51.958;4.540;2022-11-25T12:27:16;13.10;;;4.13;;
13303;SDS011;6720;51.958;4.540;2022-11-25T12:29:49;10.70;;;3.50;;
13303;SDS011;6720;51.958;4.540;2022-11-25T12:35:04;12.73;;;3.83;;
13303;SDS011;6720;51.958;4.540;2022-11-25T12:37:38;12.43;;;3.70;;
13303;SDS011;6720;51.958;4.540;2022-11-25T12:42:48;13.97;;;4.00;;
13303;SDS011;6720;51.958;4.540;2022-11-25T12:45:22;12.13;;;3.50;;
13303;SDS011;6720;51.958;4.540;2022-11-25T12:47:49;12.00;;;3.70;;
13303;SDS011;6720;51.958;4.540;2022-11-25T12:50:15;13.33;;;3.70;;
13303;SDS011;6720;51.958;4.540;2022-11-25T12:55:23;12.30;;;3.53;;
13303;SDS011;6720;51.958;4.540;2022-11-25T13:17:38;14.10;;;4.37;;
13303;SDS011;6720;51.958;4.540;2022-11-25T13:23:06;14.10;;;4.30;;
13303;SDS011;6720;51.958;4.540;2022-11-25T13:25:46;16.43;;;4.53;;
13303;SDS011;6720;51.958;4.540;2022-11-25T13:28:32;14.60;;;3.77;;
13303;SDS011;6720;51.958;4.540;2022-11-25T13:36:21;14.03;;;4.30;;
13303;SDS011;6720;51.958;4.540;2022-11-25T13:41:20;12.63;;;3.87;;
13303;SDS011;6720;51.958;4.540;2022-11-25T13:46:50;12.67;;;3.97;;
13303;SDS011;6720;51.958;4.540;2022-11-25T13:54:35;11.87;;;4.03;;
13303;SDS011;6720;51.958;4.540;2022-11-25T14:22:11;13.97;;;3.53;;
13303;SDS011;6720;51.958;4.540;2022-11-25T14:24:51;13.40;;;3.50;;
13303;SDS011;6720;51.958;4.540;2022-11-25T14:27:21;14.00;;;3.47;;
13303;SDS011;6720;51.958;4.540;2022-11-25T14:30:11;13.80;;;3.67;;
13303;SDS011;6720;51.958;4.540;2022-11-25T14:32:55;12.23;;;3.47;;
13303;SDS011;6720;51.958;4.540;2022-11-25T14:40:54;14.00;;;4.03;;
13303;SDS011;6720;51.958;4.540;2022-11-25T14:43:25;10.93;;;3.47;;
13303;SDS011;6720;51.958;4.540;2022-11-25T14:48:33;11.57;;;3.23;;
13303;SDS011;6720;51.958;4.540;2022-11-25T14:50:59;11.80;;;3.43;;
13303;SDS011;6720;51.958;4.540;2022-11-25T14:53:28;10.73;;;3.43;;
13303;SDS011;6720;51.958;4.540;2022-11-25T14:55:54;12.00;;;3.07;;
13303;SDS011;6720;51.958;4.540;2022-11-25T14:58:22;12.70;;;3.60;;
13303;SDS011;6720;51.958;4.540;2022-11-25T15:00:54;10.67;;;3.40;;
13303;SDS011;6720;51.958;4.540;2022-11-25T15:03:28;11.27;;;3.13;;
13303;SDS011;6720;51.958;4.540;2022-11-25T15:05:54;9.33;;;3.17;;
13303;SDS011;6720;51.958;4.540;2022-11-25T15:08:22;13.73;;;3.60;;
13303;SDS011;6720;51.958;4.540;2022-11-25T15:10:50;10.40;;;3.03;;
13303;SDS011;6720;51.958;4.540;2022-11-25T15:13:23;9.27;;;3.43;;
13303;SDS011;6720;51.958;4.540;2022-11-25T15:16:03;8.70;;;3.23;;
13303;SDS011;6720;51.958;4.540;2022-11-25T15:18:29;12.33;;;3.67;;
13303;SDS011;6720;51.958;4.540;2022-11-25T15:20:55;12.50;;;3.87;;
13303;SDS011;6720;51.958;4.540;2022-11-25T15:23:29;14.53;;;3.73;;
13303;SDS011;6720;51.958;4.540;2022-11-25T15:25:58;12.70;;;3.83;;
13303;SDS011;6720;51.958;4.540;2022-11-25T15:28:25;12.43;;;3.57;;
13303;SDS011;6720;51.958;4.540;2022-11-25T15:31:01;14.23;;;4.13;;
13303;SDS011;6720;51.958;4.540;2022-11-25T15:33:32;14.33;;;4.20;;
13303;SDS011;6720;51.958;4.540;2022-11-25T15:35:57;13.47;;;4.00;;
13303;SDS011;6720;51.958;4.540;2022-11-25T15:41:06;12.73;;;4.17;;
13303;SDS011;6720;51.958;4.540;2022-11-25T15:43:55;14.47;;;4.13;;
13303;SDS011;6720;51.958;4.540;2022-11-25T15:46:22;12.93;;;4.00;;
13303;SDS011;6720;51.958;4.540;2022-11-25T15:48:49;14.30;;;4.30;;
13303;SDS011;6720;51.958;4.540;2022-11-25T15:51:19;15.57;;;3.53;;
13303;SDS011;6720;51.958;4.540;2022-11-25T15:53:49;9.20;;;3.70;;
13303;SDS011;6720;51.958;4.540;2022-11-25T15:56:19;10.33;;;3.70;;
13303;SDS011;6720;51.958;4.540;2022-11-25T15:58:47;16.13;;;4.40;;
13303;SDS011;6720;51.958;4.540;2022-11-25T16:03:41;13.80;;;4.20;;
13303;SDS011;6720;51.958;4.540;2022-11-25T16:06:23;15.27;;;4.80;;
13303;SDS011;6720;51.958;4.540;2022-11-25T16:08:55;13.30;;;3.97;;
13303;SDS011;6720;51.958;4.540;2022-11-25T16:11:23;14.47;;;4.13;;
13303;SDS011;6720;51.958;4.540;2022-11-25T16:13:50;15.43;;;4.37;;
13303;SDS011;6720;51.958;4.540;2022-11-25T16:16:26;13.30;;;4.37;;
13303;SDS011;6720;51.958;4.540;2022-11-25T16:24:11;12.23;;;4.33;;
13303;SDS011;6720;51.958;4.540;2022-11-25T16:29:16;13.20;;;4.07;;
13303;SDS011;6720;51.958;4.540;2022-11-25T16:31:44;15.43;;;5.27;;
13303;SDS011;6720;51.958;4.540;2022-11-25T16:34:16;14.03;;;4.70;;
13303;SDS011;6720;51.958;4.540;2022-11-25T16:36:43;16.33;;;4.50;;
13303;SDS011;6720;51.958;4.540;2022-11-25T16:39:09;16.47;;;4.60;;
13303;SDS011;6720;51.958;4.540;2022-11-25T16:41:35;16.53;;;5.47;;
13303;SDS011;6720;51.958;4.540;2022-11-25T16:44:03;14.57;;;4.77;;
13303;SDS011;6720;51.958;4.540;2022-11-25T16:46:29;13.60;;;4.53;;
13303;SDS011;6720;51.958;4.540;2022-11-25T16:48:55;13.50;;;5.00;;
13303;SDS011;6720;51.958;4.540;2022-11-25T16:51:21;20.43;;;5.20;;
13303;SDS011;6720;51.958;4.540;2022-11-25T16:53:48;14.10;;;4.90;;
13303;SDS011;6720;51.958;4.540;2022-11-25T16:56:25;40.97;;;15.50;;
13303;SDS011;6720;51.958;4.540;2022-11-25T16:58:52;15.20;;;5.53;;
13303;SDS011;6720;51.958;4.540;2022-11-25T17:01:19;16.50;;;5.77;;
13303;SDS011;6720;51.958;4.540;2022-11-25T17:03:47;17.40;;;4.83;;
13303;SDS011;6720;51.958;4.540;2022-11-25T17:06:13;11.73;;;4.90;;
13303;SDS011;6720;51.958;4.540;2022-11-25T17:08:40;19.40;;;5.53;;
13303;SDS011;6720;51.958;4.540;2022-11-25T17:11:08;15.00;;;5.27;;
13303;SDS011;6720;51.958;4.540;2022-11-25T17:13:43;16.07;;;4.73;;
13303;SDS011;6720;51.958;4.540;2022-11-25T17:16:15;16.90;;;5.30;;
13303;SDS011;6720;51.958;4.540;2022-11-25T17:18:43;16.93;;;5.30;;
13303;SDS011;6720;51.958;4.540;2022-11-25T17:21:12;13.70;;;5.30;;
13303;SDS011;6720;51.958;4.540;2022-11-25T17:23:39;18.47;;;5.67;;
13303;SDS011;6720;51.958;4.540;2022-11-25T17:26:06;16.47;;;6.33;;
13303;SDS011;6720;51.958;4.540;2022-11-25T17:28:45;18.70;;;5.37;;
13303;SDS011;6720;51.958;4.540;2022-11-25T17:31:18;15.77;;;4.90;;
13303;SDS011;6720;51.958;4.540;2022-11-25T17:33:45;17.67;;;4.70;;
13303;SDS011;6720;51.958;4.540;2022-11-25T17:36:11;16.40;;;4.83;;